Aviation Digital Data Service (ADDS)

Output produced by METARs form (1535 UTC 23 September 2020)
found at http://aviationweather.gov/metar/data/
 
KLFT 231520Z VRB04KT 10SM BKN014 BKN022 BKN028 27/23 A2983 RMK AO2 T02670233
KLFT 231510Z VRB06KT 10SM SCT014 BKN027 27/23 A2982 RMK AO2 T02670233
KLFT 231453Z 12007G16KT 080V140 10SM FEW016 FEW046 26/23 A2983 RMK AO2 SLP100 60002 T02610228 58007
KLFT 231437Z 2315/2412 13010KT P6SM VCSH SCT007 SCT015 
     FM231700 17012G18KT P6SM VCTS OVC015CB 
     FM240000 21010KT P6SM VCSH OVC015 
     FM240300 VRB06KT P6SM OVC007 
     FM240600 31010KT P6SM BKN007 OVC015